createdAt,value
2022-08-08T00:02:03.387Z,100205.00
2022-08-08T00:04:31.974Z,100249.00
2022-08-08T00:07:16.958Z,100243.00
2022-08-08T00:10:04.429Z,100245.00
2022-08-08T00:12:44.057Z,100249.00
2022-08-08T00:15:56.092Z,100256.00
2022-08-08T00:18:31.467Z,100244.00
2022-08-08T00:21:05.276Z,100249.00
2022-08-08T00:23:47.460Z,100248.00
2022-08-08T00:26:29.822Z,100249.00
2022-08-08T00:29:08.704Z,100221.00
2022-08-08T00:32:20.944Z,100257.00
2022-08-08T00:35:18.308Z,100258.00
2022-08-08T00:38:32.081Z,100257.00
2022-08-08T00:42:07.603Z,100253.00
2022-08-08T00:45:29.544Z,100256.00
2022-08-08T00:49:22.486Z,100257.00
2022-08-08T00:52:20.141Z,100258.00
2022-08-08T00:55:53.910Z,100255.00
2022-08-08T00:59:44.410Z,100259.00
2022-08-08T01:03:57.905Z,100256.00
2022-08-08T01:06:47.612Z,100256.00
2022-08-08T01:10:29.410Z,100251.00
2022-08-08T01:13:44.264Z,100258.00
2022-08-08T01:16:59.151Z,100251.00
2022-08-08T01:20:28.245Z,100249.00
2022-08-08T01:24:06.669Z,100246.00
2022-08-08T01:26:58.483Z,100256.00
2022-08-08T01:30:27.610Z,100253.00
2022-08-08T01:34:00.564Z,100251.00
2022-08-08T01:37:51.069Z,100255.00
2022-08-08T01:40:30.825Z,100258.00
2022-08-08T01:43:12.090Z,100250.00
2022-08-08T01:45:56.260Z,100252.00
2022-08-08T01:48:53.410Z,100257.00
2022-08-08T01:52:12.830Z,100246.00
2022-08-08T01:55:25.474Z,100245.00
2022-08-08T01:58:13.476Z,100256.00
2022-08-08T02:00:58.148Z,100256.00
2022-08-08T02:03:57.477Z,100241.00
2022-08-08T02:07:00.156Z,100246.00
2022-08-08T02:10:03.472Z,100249.00
2022-08-08T02:12:52.299Z,100249.00
2022-08-08T02:15:38.566Z,100258.00
2022-08-08T02:18:13.264Z,100254.00
2022-08-08T02:21:12.970Z,100253.00
2022-08-08T02:23:48.978Z,100250.00
2022-08-08T02:26:31.171Z,100249.00
2022-08-08T02:29:41.689Z,100250.00
2022-08-08T02:32:35.926Z,100255.00
2022-08-08T02:35:35.766Z,100254.00
2022-08-08T02:39:42.115Z,100251.00
2022-08-08T02:42:47.149Z,100256.00
2022-08-08T02:46:17.164Z,100265.00
2022-08-08T02:49:47.716Z,100255.00
2022-08-08T02:52:50.211Z,100259.00
2022-08-08T02:55:59.954Z,100260.00
2022-08-08T02:59:26.061Z,100267.00
2022-08-08T03:02:56.326Z,100265.00
2022-08-08T03:06:10.393Z,100263.00
2022-08-08T03:09:56.419Z,100267.00
2022-08-08T03:13:07.337Z,100265.00
2022-08-08T03:16:35.233Z,100225.00
2022-08-08T03:19:50.768Z,100263.00
2022-08-08T03:22:38.465Z,100265.00
2022-08-08T03:25:17.786Z,100245.00
2022-08-08T03:27:56.823Z,100267.00
2022-08-08T03:30:26.871Z,100267.00
2022-08-08T03:33:55.679Z,100271.00
2022-08-08T03:36:03.690Z,100269.00
2022-08-08T03:38:58.198Z,100260.00
2022-08-08T03:42:11.937Z,100267.00
2022-08-08T03:44:20.333Z,100269.00
2022-08-08T03:46:53.970Z,100265.00
2022-08-08T03:49:59.597Z,100280.00
2022-08-08T03:52:16.245Z,100275.00
2022-08-08T03:55:01.983Z,100285.00
2022-08-08T03:58:32.104Z,100285.00
2022-08-08T04:00:30.934Z,100279.00
2022-08-08T04:03:11.048Z,100283.00
2022-08-08T04:05:48.120Z,100277.00
2022-08-08T04:08:33.798Z,100280.00
2022-08-08T04:11:10.887Z,100288.00
2022-08-08T04:14:04.359Z,100288.00
2022-08-08T04:16:38.777Z,100289.00
2022-08-08T04:19:24.038Z,100299.00
2022-08-08T04:21:58.368Z,100301.00
2022-08-08T04:24:30.986Z,100302.00
2022-08-08T04:27:02.908Z,100299.00
2022-08-08T04:29:37.625Z,100299.00
2022-08-08T04:32:14.302Z,100299.00
2022-08-08T04:34:59.548Z,100293.00
2022-08-08T04:37:34.101Z,100306.00
2022-08-08T04:40:12.105Z,100303.00
2022-08-08T04:42:56.949Z,100305.00
2022-08-08T04:45:41.396Z,100309.00
2022-08-08T04:48:11.124Z,100308.00
2022-08-08T04:50:45.897Z,100323.00
2022-08-08T04:54:26.840Z,100320.00
2022-08-08T04:56:09.022Z,100297.00
2022-08-08T04:58:38.254Z,100317.00
2022-08-08T05:01:11.101Z,100323.00
2022-08-08T05:04:11.317Z,100319.00
2022-08-08T05:06:39.053Z,100332.00
2022-08-08T05:09:08.673Z,100330.00
2022-08-08T05:11:40.865Z,100331.00
2022-08-08T05:14:14.045Z,100335.00
2022-08-08T05:16:54.856Z,100333.00
2022-08-08T05:20:12.407Z,100324.00
2022-08-08T05:22:21.768Z,100325.00
2022-08-08T05:24:52.306Z,100325.00
2022-08-08T05:27:23.160Z,100325.00
2022-08-08T05:29:53.545Z,100315.00
2022-08-08T05:32:29.901Z,100330.00
2022-08-08T05:35:05.209Z,100335.00
2022-08-08T05:37:53.792Z,100336.00
2022-08-08T05:40:37.357Z,100343.00
2022-08-08T05:43:38.804Z,100338.00
2022-08-08T05:46:08.210Z,100340.00
2022-08-08T05:48:42.565Z,100340.00
2022-08-08T05:51:16.193Z,100336.00
2022-08-08T05:54:24.656Z,100345.00
2022-08-08T05:56:42.023Z,100338.00
2022-08-08T06:00:00.994Z,100349.00
2022-08-08T06:02:38.820Z,100352.00
2022-08-08T06:05:33.634Z,100344.00
2022-08-08T06:08:10.384Z,100353.00
2022-08-08T06:10:55.477Z,100356.00
2022-08-08T06:13:26.637Z,100359.00
2022-08-08T06:16:03.659Z,100353.00
2022-08-08T06:18:59.611Z,100356.00
2022-08-08T06:21:32.574Z,100349.00
2022-08-08T06:24:05.119Z,100362.00
2022-08-08T06:26:52.704Z,100363.00
2022-08-08T06:30:00.196Z,100366.00
2022-08-08T06:32:29.629Z,100370.00
2022-08-08T06:36:00.415Z,100370.00
2022-08-08T06:38:02.993Z,100362.00
2022-08-08T06:40:36.949Z,100361.00
2022-08-08T06:43:11.793Z,100368.00
2022-08-08T06:45:51.536Z,100370.00
2022-08-08T06:48:21.632Z,100371.00
2022-08-08T06:50:56.458Z,100368.00
2022-08-08T06:53:39.524Z,100362.00
2022-08-08T06:56:10.103Z,100367.00
2022-08-08T06:58:40.095Z,100366.00
2022-08-08T07:02:17.266Z,100367.00
2022-08-08T07:04:38.923Z,100366.00
2022-08-08T07:07:10.312Z,100370.00
2022-08-08T07:09:59.283Z,100369.00
2022-08-08T07:12:42.982Z,100369.00
2022-08-08T07:15:31.938Z,100371.00
2022-08-08T07:18:35.143Z,100367.00
2022-08-08T07:21:18.629Z,100367.00
2022-08-08T07:24:03.655Z,100370.00
2022-08-08T07:26:46.770Z,100362.00
2022-08-08T07:29:58.892Z,100372.00
2022-08-08T07:32:09.382Z,100367.00
2022-08-08T07:34:39.971Z,100368.00
2022-08-08T07:37:55.621Z,100364.00
2022-08-08T07:40:21.006Z,100364.00
2022-08-08T07:42:59.882Z,100365.00
2022-08-08T07:45:34.614Z,100376.00
2022-08-08T07:48:05.111Z,100362.00
2022-08-08T07:50:34.850Z,100362.00
2022-08-08T07:53:52.112Z,100371.00
2022-08-08T07:56:10.543Z,100370.00
2022-08-08T07:58:45.146Z,100366.00
2022-08-08T08:02:35.726Z,100372.00
2022-08-08T08:04:18.716Z,100369.00
2022-08-08T08:06:50.559Z,100366.00
2022-08-08T08:09:26.499Z,100379.00
2022-08-08T08:11:57.533Z,100372.00
2022-08-08T08:14:51.718Z,100375.00
2022-08-08T08:17:23.791Z,100380.00
2022-08-08T08:19:59.604Z,100383.00
2022-08-08T08:22:33.558Z,100380.00
2022-08-08T08:25:08.231Z,100372.00
2022-08-08T08:27:38.593Z,100382.00
2022-08-08T08:30:16.494Z,100395.00
2022-08-08T08:32:51.369Z,100389.00
2022-08-08T08:35:29.929Z,100379.00
2022-08-08T08:38:17.919Z,100379.00
2022-08-08T08:40:54.955Z,100381.00
2022-08-08T08:43:26.721Z,100383.00
2022-08-08T08:46:03.338Z,100391.00
2022-08-08T08:48:33.139Z,100385.00
2022-08-08T08:51:03.942Z,100390.00
2022-08-08T08:53:55.967Z,100386.00
2022-08-08T08:56:29.640Z,100394.00
2022-08-08T08:59:05.863Z,100401.00
2022-08-08T09:01:45.453Z,100399.00
2022-08-08T09:04:31.208Z,100392.00
2022-08-08T09:07:13.785Z,100398.00
2022-08-08T09:09:55.295Z,100399.00
2022-08-08T09:12:30.470Z,100392.00
2022-08-08T09:15:00.797Z,100400.00
2022-08-08T09:17:41.511Z,100390.00
2022-08-08T09:22:00.132Z,100391.00
2022-08-08T09:23:11.200Z,100386.00
2022-08-08T09:25:54.870Z,100393.00
2022-08-08T09:28:37.691Z,100378.00
2022-08-08T09:31:16.653Z,100385.00
2022-08-08T09:34:31.735Z,100391.00
2022-08-08T09:36:51.723Z,100392.00
2022-08-08T09:40:03.791Z,100391.00
2022-08-08T09:42:44.075Z,100391.00
2022-08-08T09:45:54.856Z,100388.00
2022-08-08T09:48:21.155Z,100388.00
2022-08-08T09:50:56.158Z,100383.00
2022-08-08T09:53:59.882Z,100378.00
2022-08-08T09:56:25.275Z,100396.00
2022-08-08T09:59:02.162Z,100394.00
2022-08-08T10:01:59.675Z,100399.00
2022-08-08T10:04:41.886Z,100396.00
2022-08-08T10:07:17.553Z,100390.00
2022-08-08T10:09:59.225Z,100384.00
2022-08-08T10:12:38.809Z,100379.00
2022-08-08T10:15:24.222Z,100390.00
2022-08-08T10:18:05.541Z,100369.00
2022-08-08T10:20:58.066Z,100380.00
2022-08-08T10:23:47.139Z,100376.00
2022-08-08T10:26:29.787Z,100358.00
2022-08-08T10:29:05.944Z,100381.00
2022-08-08T10:31:54.970Z,100376.00
2022-08-08T10:34:27.396Z,100377.00
2022-08-08T10:36:59.740Z,100352.00
2022-08-08T10:39:42.920Z,100366.00
2022-08-08T10:42:17.047Z,100358.00
2022-08-08T10:44:46.080Z,100360.00
2022-08-08T10:47:21.600Z,100353.00
2022-08-08T10:50:02.045Z,100354.00
2022-08-08T10:52:33.773Z,100353.00
2022-08-08T10:55:08.195Z,100351.00
2022-08-08T10:57:50.027Z,100345.00
2022-08-08T11:00:26.058Z,100346.00
2022-08-08T11:02:55.179Z,100347.00
2022-08-08T11:05:24.415Z,100349.00
2022-08-08T11:08:37.246Z,100348.00
2022-08-08T11:10:46.884Z,100344.00
2022-08-08T11:13:31.741Z,100340.00
2022-08-08T11:16:11.351Z,100343.00
2022-08-08T11:18:40.441Z,100335.00
2022-08-08T11:21:10.246Z,100342.00
2022-08-08T11:23:44.147Z,100332.00
2022-08-08T11:26:20.319Z,100343.00
2022-08-08T11:29:01.280Z,100348.00
2022-08-08T11:31:36.402Z,100345.00
2022-08-08T11:34:24.444Z,100338.00
2022-08-08T11:37:15.404Z,100337.00
2022-08-08T11:39:57.164Z,100324.00
2022-08-08T11:42:31.044Z,100334.00
2022-08-08T11:45:00.378Z,100335.00
2022-08-08T11:47:39.619Z,100330.00
2022-08-08T11:50:23.487Z,100318.00
2022-08-08T11:52:52.383Z,100330.00
2022-08-08T11:55:26.681Z,100316.00
2022-08-08T11:58:14.679Z,100330.00
2022-08-08T12:00:47.841Z,100323.00
2022-08-08T12:03:23.581Z,100322.00
2022-08-08T12:05:54.530Z,100324.00
2022-08-08T12:08:34.446Z,100317.00
2022-08-08T12:11:05.480Z,100313.00
2022-08-08T12:14:02.760Z,100333.00
2022-08-08T12:16:30.240Z,100312.00
2022-08-08T12:19:05.939Z,100310.00
2022-08-08T12:21:59.697Z,100311.00
2022-08-08T12:24:27.993Z,100305.00
2022-08-08T12:26:58.450Z,100314.00
2022-08-08T12:29:42.493Z,100315.00
2022-08-08T12:32:19.900Z,100312.00
2022-08-08T12:35:13.299Z,100306.00
2022-08-08T12:38:02.144Z,100314.00
2022-08-08T12:40:54.230Z,100308.00
2022-08-08T12:43:32.632Z,100313.00
2022-08-08T12:46:19.028Z,100313.00
2022-08-08T12:49:22.177Z,100278.00
2022-08-08T12:51:50.069Z,100312.00
2022-08-08T12:54:25.620Z,100306.00
2022-08-08T12:56:54.532Z,100299.00
2022-08-08T12:59:27.509Z,100309.00
2022-08-08T13:02:28.627Z,100297.00
2022-08-08T13:05:00.171Z,100297.00
2022-08-08T13:08:02.911Z,100299.00
2022-08-08T13:10:32.925Z,100292.00
2022-08-08T13:13:05.982Z,100296.00
2022-08-08T13:15:37.360Z,100275.00
2022-08-08T13:18:10.434Z,100291.00
2022-08-08T13:20:46.059Z,100285.00
2022-08-08T13:23:36.656Z,100309.00
2022-08-08T13:26:18.301Z,100285.00
2022-08-08T13:28:48.962Z,100294.00
2022-08-08T13:31:17.500Z,100293.00
2022-08-08T13:33:49.614Z,100272.00
2022-08-08T13:36:26.157Z,100275.00
2022-08-08T13:38:54.779Z,100277.00
2022-08-08T13:41:37.845Z,100273.00
2022-08-08T13:44:11.031Z,100288.00
2022-08-08T13:46:39.662Z,100274.00
2022-08-08T13:50:38.289Z,100285.00
2022-08-08T13:52:08.460Z,100263.00
2022-08-08T13:54:49.310Z,100288.00
2022-08-08T13:57:18.145Z,100281.00
2022-08-08T14:00:14.270Z,100276.00
2022-08-08T14:02:43.080Z,100239.00
2022-08-08T14:05:21.633Z,100278.00
2022-08-08T14:07:53.205Z,100272.00
2022-08-08T14:10:33.263Z,100284.00
2022-08-08T14:13:20.906Z,100271.00
2022-08-08T14:16:03.493Z,100275.00
2022-08-08T14:18:36.304Z,100260.00
2022-08-08T14:21:22.337Z,100285.00
2022-08-08T14:24:07.994Z,100288.00
2022-08-08T14:26:42.959Z,100273.00
2022-08-08T14:29:30.261Z,100285.00
2022-08-08T14:32:09.248Z,100292.00
2022-08-08T14:34:42.291Z,100272.00
2022-08-08T14:37:13.451Z,100275.00
2022-08-08T14:39:49.868Z,100272.00
2022-08-08T14:42:30.572Z,100254.00
2022-08-08T14:45:02.936Z,100277.00
2022-08-08T14:47:36.130Z,100275.00
2022-08-08T14:50:21.316Z,100268.00
2022-08-08T14:52:59.951Z,100271.00
2022-08-08T14:55:35.564Z,100271.00
2022-08-08T14:58:16.890Z,100277.00
2022-08-08T15:00:49.357Z,100273.00
2022-08-08T15:03:18.687Z,100277.00
2022-08-08T15:05:53.802Z,100270.00
2022-08-08T15:08:35.385Z,100270.00
2022-08-08T15:11:10.319Z,100267.00
2022-08-08T15:14:01.025Z,100274.00
2022-08-08T15:16:29.454Z,100268.00
2022-08-08T15:19:03.669Z,100267.00
2022-08-08T15:21:32.086Z,100276.00
2022-08-08T15:24:01.419Z,100283.00
2022-08-08T15:26:31.163Z,100271.00
2022-08-08T15:28:59.260Z,100277.00
2022-08-08T15:32:03.069Z,100274.00
2022-08-08T15:34:28.990Z,100274.00
2022-08-08T15:37:01.884Z,100272.00
2022-08-08T15:39:37.429Z,100268.00
2022-08-08T15:42:13.073Z,100266.00
2022-08-08T15:44:42.555Z,100255.00
2022-08-08T15:47:15.712Z,100263.00
2022-08-08T15:49:48.529Z,100267.00
2022-08-08T15:52:18.244Z,100265.00
2022-08-08T15:54:52.621Z,100262.00
2022-08-08T15:57:23.128Z,100261.00
2022-08-08T16:00:05.469Z,100254.00
2022-08-08T16:02:41.275Z,100250.00
2022-08-08T16:05:19.730Z,100250.00
2022-08-08T16:07:52.991Z,100257.00
2022-08-08T16:13:13.953Z,100254.00
2022-08-08T16:13:30.745Z,100264.00
2022-08-08T16:16:17.651Z,100265.00
2022-08-08T16:18:56.642Z,100257.00
2022-08-08T16:21:27.741Z,100255.00
2022-08-08T16:23:56.446Z,100262.00
2022-08-08T16:26:34.078Z,100267.00
2022-08-08T16:29:07.934Z,100255.00
2022-08-08T16:31:37.365Z,100259.00
2022-08-08T16:34:06.050Z,100263.00
2022-08-08T16:36:34.436Z,100254.00
2022-08-08T16:39:16.659Z,100263.00
2022-08-08T16:41:53.941Z,100264.00
2022-08-08T16:44:33.980Z,100267.00
2022-08-08T16:47:18.167Z,100268.00
2022-08-08T16:49:50.139Z,100268.00
2022-08-08T16:55:05.347Z,100268.00
2022-08-08T16:55:52.238Z,100270.00
2022-08-08T16:58:13.905Z,100262.00
2022-08-08T17:00:48.980Z,100281.00
2022-08-08T17:03:24.731Z,100277.00
2022-08-08T17:06:03.264Z,100273.00
2022-08-08T17:08:31.714Z,100273.00
2022-08-08T17:11:10.729Z,100274.00
2022-08-08T17:13:40.920Z,100278.00
2022-08-08T17:16:22.050Z,100269.00
2022-08-08T17:18:52.664Z,100278.00
2022-08-08T17:21:21.414Z,100260.00
2022-08-08T17:24:00.017Z,100281.00
2022-08-08T17:26:31.399Z,100277.00
2022-08-08T17:29:04.493Z,100282.00
2022-08-08T17:31:45.786Z,100288.00
2022-08-08T17:34:53.183Z,100290.00
2022-08-08T17:37:06.632Z,100284.00
2022-08-08T17:40:03.914Z,100287.00
2022-08-08T17:42:26.007Z,100286.00
2022-08-08T17:44:58.037Z,100286.00
2022-08-08T17:47:28.114Z,100290.00
2022-08-08T17:50:01.157Z,100288.00
2022-08-08T17:52:33.359Z,100289.00
2022-08-08T17:55:05.096Z,100293.00
2022-08-08T17:57:35.282Z,100299.00
2022-08-08T18:00:19.283Z,100296.00
2022-08-08T18:02:58.119Z,100306.00
2022-08-08T18:05:48.554Z,100308.00
2022-08-08T18:08:24.888Z,100298.00
2022-08-08T18:11:11.646Z,100306.00
2022-08-08T18:13:42.874Z,100306.00
2022-08-08T18:16:12.746Z,100304.00
2022-08-08T18:18:50.530Z,100311.00
2022-08-08T18:21:25.201Z,100312.00
2022-08-08T18:24:04.354Z,100308.00
2022-08-08T18:26:33.590Z,100310.00
2022-08-08T18:29:03.108Z,100303.00
2022-08-08T18:31:36.505Z,100312.00
2022-08-08T18:34:25.340Z,100321.00
2022-08-08T18:36:55.857Z,100321.00
2022-08-08T18:39:27.511Z,100330.00
2022-08-08T18:42:03.085Z,100335.00
2022-08-08T18:44:34.511Z,100338.00
2022-08-08T18:47:05.267Z,100344.00
2022-08-08T18:49:40.977Z,100348.00
2022-08-08T18:52:23.457Z,100348.00
2022-08-08T18:54:59.231Z,100358.00
2022-08-08T18:57:36.528Z,100358.00
2022-08-08T19:00:13.884Z,100371.00
2022-08-08T19:02:54.657Z,100371.00
2022-08-08T19:05:30.504Z,100374.00
2022-08-08T19:08:25.474Z,100369.00
2022-08-08T19:11:01.256Z,100373.00
2022-08-08T19:13:52.445Z,100376.00
2022-08-08T19:16:23.709Z,100382.00
2022-08-08T19:19:02.348Z,100388.00
2022-08-08T19:21:49.154Z,100379.00
2022-08-08T19:24:42.441Z,100394.00
2022-08-08T19:27:07.850Z,100392.00
2022-08-08T19:29:40.747Z,100393.00
2022-08-08T19:32:19.667Z,100397.00
2022-08-08T19:34:52.764Z,100396.00
2022-08-08T19:37:43.375Z,100399.00
2022-08-08T19:40:15.994Z,100405.00
2022-08-08T19:42:45.086Z,100415.00
2022-08-08T19:45:14.031Z,100409.00
2022-08-08T19:48:01.453Z,100408.00
2022-08-08T19:50:33.042Z,100412.00
2022-08-08T19:53:01.030Z,100412.00
2022-08-08T19:55:33.987Z,100418.00
2022-08-08T19:58:02.317Z,100405.00
2022-08-08T20:00:43.233Z,100414.00
2022-08-08T20:03:14.535Z,100425.00
2022-08-08T20:06:13.758Z,100420.00
2022-08-08T20:08:48.184Z,100422.00
2022-08-08T20:11:18.823Z,100424.00
2022-08-08T20:14:12.818Z,100423.00
2022-08-08T20:16:40.713Z,100405.00
2022-08-08T20:19:09.317Z,100425.00
2022-08-08T20:21:38.922Z,100423.00
2022-08-08T20:24:08.713Z,100425.00
2022-08-08T20:26:41.853Z,100423.00
2022-08-08T20:29:16.036Z,100424.00
2022-08-08T20:32:08.136Z,100425.00
2022-08-08T20:34:32.446Z,100423.00
2022-08-08T20:37:07.135Z,100426.00
2022-08-08T20:39:41.571Z,100424.00
2022-08-08T20:42:28.727Z,100434.00
2022-08-08T20:44:58.976Z,100431.00
2022-08-08T20:47:36.206Z,100430.00
2022-08-08T20:50:06.168Z,100423.00
2022-08-08T20:52:40.398Z,100435.00
2022-08-08T20:55:22.669Z,100436.00
2022-08-08T20:57:54.340Z,100431.00
2022-08-08T21:00:26.559Z,100392.00
2022-08-08T21:02:54.650Z,100429.00
2022-08-08T21:05:23.065Z,100431.00
2022-08-08T21:08:34.371Z,100441.00
2022-08-08T21:10:43.507Z,100435.00
2022-08-08T21:13:12.372Z,100443.00
2022-08-08T21:16:05.339Z,100433.00
2022-08-08T21:18:30.248Z,100433.00
2022-08-08T21:21:00.184Z,100424.00
2022-08-08T21:24:02.860Z,100433.00
2022-08-08T21:26:26.800Z,100438.00
2022-08-08T21:28:55.828Z,100437.00
2022-08-08T21:31:58.271Z,100434.00
2022-08-08T21:34:18.825Z,100437.00
2022-08-08T21:36:48.774Z,100437.00
2022-08-08T21:39:19.481Z,100436.00
2022-08-08T21:41:58.922Z,100439.00
2022-08-08T21:44:27.267Z,100440.00
2022-08-08T21:48:05.598Z,100446.00
2022-08-08T21:49:43.222Z,100439.00
2022-08-08T21:54:32.733Z,100442.00
2022-08-08T21:55:04.301Z,100439.00
2022-08-08T21:57:42.975Z,100437.00
2022-08-08T22:00:26.194Z,100440.00
2022-08-08T22:02:54.362Z,100438.00
2022-08-08T22:05:23.125Z,100439.00
2022-08-08T22:07:51.094Z,100439.00
2022-08-08T22:10:32.370Z,100442.00
2022-08-08T22:13:17.789Z,100440.00
2022-08-08T22:15:58.780Z,100447.00
2022-08-08T22:18:30.850Z,100454.00
2022-08-08T22:21:01.691Z,100440.00
2022-08-08T22:23:50.377Z,100447.00
2022-08-08T22:26:30.035Z,100450.00
2022-08-08T22:29:13.333Z,100454.00
2022-08-08T22:32:01.875Z,100455.00
2022-08-08T22:34:32.404Z,100456.00
2022-08-08T22:37:00.531Z,100463.00
2022-08-08T22:39:39.443Z,100466.00
2022-08-08T22:42:27.098Z,100462.00
2022-08-08T22:44:59.513Z,100467.00
2022-08-08T22:47:37.608Z,100469.00
2022-08-08T22:50:27.515Z,100460.00
2022-08-08T22:54:27.559Z,100460.00
2022-08-08T22:55:59.640Z,100466.00
2022-08-08T22:58:34.175Z,100473.00
2022-08-08T23:01:26.585Z,100431.00
2022-08-08T23:03:55.237Z,100470.00
2022-08-08T23:06:24.848Z,100462.00
2022-08-08T23:08:55.084Z,100467.00
2022-08-08T23:11:58.126Z,100456.00
2022-08-08T23:14:14.271Z,100472.00
2022-08-08T23:16:46.274Z,100462.00
2022-08-08T23:19:16.345Z,100462.00
2022-08-08T23:21:45.690Z,100465.00
2022-08-08T23:24:22.222Z,100465.00
2022-08-08T23:26:55.823Z,100476.00
2022-08-08T23:29:27.165Z,100472.00
2022-08-08T23:31:59.122Z,100474.00
2022-08-08T23:34:29.274Z,100473.00
2022-08-08T23:36:59.768Z,100468.00
2022-08-08T23:39:32.131Z,100463.00
2022-08-08T23:42:09.434Z,100421.00
2022-08-08T23:44:39.367Z,100457.00
2022-08-08T23:49:00.664Z,100455.00
2022-08-08T23:50:02.976Z,100461.00
2022-08-08T23:52:34.161Z,100449.00
2022-08-08T23:55:13.868Z,100454.00
2022-08-08T23:57:52.467Z,100458.00
